createdAt,value
2017-05-14T00:00:23.451Z,26.88
2017-05-14T00:02:52.528Z,25.18
2017-05-14T00:05:21.778Z,20.48
2017-05-14T00:07:51.756Z,21.78
2017-05-14T00:10:20.847Z,22.90
2017-05-14T00:12:49.903Z,24.24
2017-05-14T00:15:19.763Z,23.02
2017-05-14T00:17:48.855Z,20.40
2017-05-14T00:20:17.986Z,23.00
2017-05-14T00:22:47.055Z,26.34
2017-05-14T00:25:16.187Z,21.80
2017-05-14T00:27:45.250Z,22.02
2017-05-14T00:30:14.339Z,17.24
2017-05-14T00:32:43.415Z,20.52
2017-05-14T00:35:12.523Z,18.40
2017-05-14T00:37:41.639Z,16.38
2017-05-14T00:40:10.715Z,16.86
2017-05-14T00:42:39.834Z,20.68
2017-05-14T00:45:08.926Z,21.18
2017-05-14T00:47:38.043Z,20.22
2017-05-14T00:50:07.855Z,22.98
2017-05-14T00:52:36.984Z,20.52
2017-05-14T00:55:06.050Z,18.98
2017-05-14T00:57:35.190Z,23.34
2017-05-14T01:00:04.258Z,22.58
2017-05-14T01:02:33.379Z,23.20
2017-05-14T01:05:02.463Z,21.98
2017-05-14T01:07:31.582Z,20.44
2017-05-14T01:10:00.643Z,17.28
2017-05-14T01:12:30.480Z,20.52
2017-05-14T01:14:59.659Z,22.78
2017-05-14T01:17:28.783Z,23.18
2017-05-14T01:19:57.843Z,20.10
2017-05-14T01:22:26.951Z,23.94
2017-05-14T01:24:56.067Z,28.74
2017-05-14T01:27:25.154Z,25.76
2017-05-14T01:29:54.247Z,26.28
2017-05-14T01:32:23.378Z,31.42
2017-05-14T01:34:52.450Z,21.48
2017-05-14T01:37:21.604Z,24.34
2017-05-14T01:39:51.398Z,20.30
2017-05-14T01:42:21.244Z,26.04
2017-05-14T01:44:50.301Z,26.12
2017-05-14T01:47:19.444Z,24.82
2017-05-14T01:49:48.523Z,27.66
2017-05-14T01:52:17.641Z,27.64
2017-05-14T01:54:46.711Z,25.00
2017-05-14T01:57:16.050Z,23.84
2017-05-14T01:59:45.115Z,28.38
2017-05-14T02:02:14.219Z,19.58
2017-05-14T02:04:43.295Z,29.16
2017-05-14T02:07:12.400Z,27.82
2017-05-14T02:09:41.507Z,26.58
2017-05-14T02:12:10.586Z,22.24
2017-05-14T02:14:39.712Z,21.10
2017-05-14T02:17:08.758Z,24.90
2017-05-14T02:19:37.877Z,23.86
2017-05-14T02:22:07.010Z,27.66
2017-05-14T02:24:36.063Z,22.34
2017-05-14T02:27:05.197Z,27.76
2017-05-14T02:29:34.266Z,30.36
2017-05-14T02:32:03.372Z,29.28
2017-05-14T02:34:32.443Z,27.60
2017-05-14T02:37:01.589Z,26.54
2017-05-14T02:39:30.644Z,23.50
2017-05-14T02:41:59.735Z,28.80
2017-05-14T02:44:28.830Z,27.92
2017-05-14T02:46:57.976Z,28.04
2017-05-14T02:49:27.795Z,28.44
2017-05-14T02:51:57.639Z,30.52
2017-05-14T02:54:26.739Z,25.22
2017-05-14T02:56:55.859Z,28.44
2017-05-14T02:59:24.939Z,31.64
2017-05-14T03:01:54.070Z,25.38
2017-05-14T03:04:23.892Z,29.34
2017-05-14T03:06:53.024Z,30.00
2017-05-14T03:09:22.084Z,26.34
2017-05-14T03:11:51.167Z,29.36
2017-05-14T03:14:20.286Z,30.22
2017-05-14T03:16:50.086Z,30.20
2017-05-14T03:19:20.326Z,30.42
2017-05-14T03:21:49.414Z,30.90
2017-05-14T03:24:18.528Z,27.52
2017-05-14T03:26:47.592Z,27.34
2017-05-14T03:29:17.450Z,29.50
2017-05-14T03:31:46.530Z,27.04
2017-05-14T03:34:15.671Z,27.66
2017-05-14T03:36:44.913Z,28.28
2017-05-14T03:39:14.031Z,27.80
2017-05-14T03:41:43.107Z,24.50
2017-05-14T03:44:12.190Z,21.48
2017-05-14T03:46:41.496Z,24.34
2017-05-14T03:49:10.575Z,21.04
2017-05-14T03:51:40.367Z,22.26
2017-05-14T03:54:09.451Z,23.20
2017-05-14T03:56:38.510Z,23.20
2017-05-14T03:59:07.642Z,21.20
2017-05-14T04:01:36.714Z,22.50
2017-05-14T04:04:05.910Z,23.50
2017-05-14T04:06:35.006Z,23.00
2017-05-14T04:09:04.109Z,18.80
2017-05-14T04:11:33.182Z,17.82
2017-05-14T04:14:02.256Z,19.36
2017-05-14T04:16:31.368Z,17.14
2017-05-14T04:19:00.424Z,18.92
2017-05-14T04:21:30.358Z,17.14
2017-05-14T04:23:59.570Z,16.32
2017-05-14T04:26:28.643Z,18.32
2017-05-14T04:28:57.738Z,19.00
2017-05-14T04:31:26.810Z,18.62
2017-05-14T04:33:55.936Z,20.38
2017-05-14T04:36:25.003Z,19.02
2017-05-14T04:38:54.832Z,22.08
2017-05-14T04:41:23.914Z,19.12
2017-05-14T04:43:52.996Z,20.70
2017-05-14T04:46:22.070Z,21.66
2017-05-14T04:48:51.275Z,27.00
2017-05-14T04:51:20.335Z,22.94
2017-05-14T04:53:49.396Z,24.10
2017-05-14T04:56:19.220Z,20.62
2017-05-14T04:58:48.310Z,20.42
2017-05-14T05:01:17.418Z,23.48
2017-05-14T05:03:46.498Z,25.72
2017-05-14T05:06:16.315Z,22.98
2017-05-14T05:08:45.392Z,21.00
2017-05-14T05:11:14.622Z,20.00
2017-05-14T05:13:43.696Z,20.92
2017-05-14T05:16:12.772Z,21.02
2017-05-14T05:18:42.595Z,20.92
2017-05-14T05:21:12.417Z,23.90
2017-05-14T05:23:41.519Z,22.06
2017-05-14T05:26:10.586Z,22.80
2017-05-14T05:28:40.728Z,26.14
2017-05-14T05:31:09.799Z,24.40
2017-05-14T05:33:39.599Z,20.98
2017-05-14T05:36:09.438Z,23.38
2017-05-14T05:38:38.519Z,20.36
2017-05-14T05:41:08.347Z,24.56
2017-05-14T05:43:37.421Z,20.90
2017-05-14T05:46:07.254Z,21.68
2017-05-14T05:48:36.332Z,23.24
2017-05-14T05:51:05.650Z,23.62
2017-05-14T05:53:34.715Z,26.32
2017-05-14T05:56:03.822Z,23.66
2017-05-14T05:58:33.658Z,21.94
2017-05-14T06:01:02.758Z,21.12
2017-05-14T06:03:31.839Z,23.76
2017-05-14T06:06:01.638Z,23.26
2017-05-14T06:08:31.687Z,24.66
2017-05-14T06:11:00.763Z,25.06
2017-05-14T06:13:29.900Z,28.04
2017-05-14T06:15:59.074Z,27.74
2017-05-14T06:18:28.138Z,25.60
2017-05-14T06:20:58.097Z,24.56
2017-05-14T06:23:27.195Z,26.96
2017-05-14T06:25:56.280Z,25.94
2017-05-14T06:28:25.554Z,27.68
2017-05-14T06:30:54.650Z,28.50
2017-05-14T06:33:23.734Z,34.74
2017-05-14T06:35:53.559Z,29.66
2017-05-14T06:38:22.643Z,31.10
2017-05-14T06:40:51.872Z,28.50
2017-05-14T06:43:20.955Z,32.36
2017-05-14T06:45:50.010Z,47.02
2017-05-14T06:48:19.136Z,30.26
2017-05-14T06:50:48.202Z,32.54
2017-05-14T06:53:17.287Z,34.14
2017-05-14T06:55:46.354Z,38.48
2017-05-14T06:58:15.467Z,36.22
2017-05-14T07:00:44.555Z,38.66
2017-05-14T07:03:13.651Z,47.32
2017-05-14T07:05:42.725Z,36.26
2017-05-14T07:08:11.832Z,34.98
2017-05-14T07:10:40.913Z,58.64
2017-05-14T07:13:10.094Z,49.04
2017-05-14T07:15:39.144Z,40.20
2017-05-14T07:18:08.958Z,47.68
2017-05-14T07:20:38.806Z,36.42
2017-05-14T07:23:07.894Z,35.12
2017-05-14T07:25:36.987Z,31.74
2017-05-14T07:28:06.059Z,34.60
2017-05-14T07:30:35.891Z,35.10
2017-05-14T07:33:04.984Z,39.94
2017-05-14T07:35:35.110Z,64.50
2017-05-14T07:38:04.179Z,42.04
2017-05-14T07:40:34.007Z,38.90
2017-05-14T07:43:03.106Z,42.06
2017-05-14T07:45:32.187Z,44.70
2017-05-14T07:48:02.014Z,72.00
2017-05-14T07:50:31.095Z,41.58
2017-05-14T07:53:01.123Z,42.16
2017-05-14T07:55:30.187Z,50.72
2017-05-14T07:57:59.235Z,66.00
2017-05-14T08:00:28.336Z,61.10
2017-05-14T08:02:57.439Z,71.56
2017-05-14T08:05:26.540Z,53.78
2017-05-14T08:07:55.607Z,45.52
2017-05-14T08:10:24.695Z,49.12
2017-05-14T08:12:53.784Z,33.64
2017-05-14T08:15:22.990Z,39.10
2017-05-14T08:17:52.079Z,36.20
2017-05-14T08:20:21.154Z,46.64
2017-05-14T08:22:50.982Z,33.62
2017-05-14T08:25:20.907Z,32.44
2017-05-14T08:27:50.018Z,37.38
2017-05-14T08:30:19.940Z,32.98
2017-05-14T08:32:49.015Z,32.18
2017-05-14T08:35:18.186Z,39.86
2017-05-14T08:37:47.503Z,39.62
2017-05-14T08:40:16.683Z,63.16
2017-05-14T08:42:45.782Z,43.48
2017-05-14T08:45:14.886Z,43.76
2017-05-14T08:47:43.946Z,40.78
2017-05-14T08:50:13.067Z,35.36
2017-05-14T08:52:42.137Z,39.24
2017-05-14T08:57:47.366Z,37.94
2017-05-14T09:00:16.457Z,34.50
2017-05-14T09:02:45.552Z,38.36
2017-05-14T09:05:14.742Z,30.94
2017-05-14T09:07:43.815Z,34.86
2017-05-14T09:10:12.900Z,32.04
2017-05-14T09:12:41.982Z,28.34
2017-05-14T09:15:11.054Z,25.32
2017-05-14T09:17:40.886Z,32.16
2017-05-14T09:20:10.692Z,34.62
2017-05-14T09:22:40.615Z,32.74
2017-05-14T09:25:10.410Z,31.72
2017-05-14T09:27:40.234Z,28.02
2017-05-14T09:30:10.056Z,30.62
2017-05-14T09:32:39.118Z,31.00
2017-05-14T09:35:08.459Z,56.36
2017-05-14T09:37:37.555Z,42.90
2017-05-14T09:40:06.622Z,43.88
2017-05-14T09:42:36.451Z,47.34
2017-05-14T09:45:05.522Z,49.40
2017-05-14T09:47:34.806Z,34.50
2017-05-14T09:50:03.878Z,29.18
2017-05-14T09:52:32.979Z,28.92
2017-05-14T09:55:02.087Z,29.56
2017-05-14T09:57:31.175Z,26.40
2017-05-14T10:00:00.350Z,34.30
2017-05-14T10:02:29.411Z,30.98
2017-05-14T10:04:58.481Z,34.42
2017-05-14T10:07:27.711Z,32.24
2017-05-14T10:09:56.781Z,30.98
2017-05-14T10:12:25.994Z,28.42
2017-05-14T10:14:55.065Z,28.34
2017-05-14T10:17:24.119Z,29.24
2017-05-14T10:19:53.215Z,30.02
2017-05-14T10:22:22.311Z,31.98
2017-05-14T10:24:51.419Z,26.58
2017-05-14T10:27:21.258Z,30.92
2017-05-14T10:29:50.451Z,30.06
2017-05-14T10:32:20.278Z,31.20
2017-05-14T10:34:50.099Z,28.96
2017-05-14T10:37:19.935Z,30.88
2017-05-14T10:39:49.000Z,34.40
2017-05-14T10:42:18.091Z,31.58
2017-05-14T10:44:47.172Z,36.28
2017-05-14T10:47:16.266Z,37.46
2017-05-14T10:49:46.091Z,35.34
2017-05-14T10:52:15.712Z,36.26
2017-05-14T10:54:44.778Z,34.56
2017-05-14T10:57:14.018Z,27.16
2017-05-14T10:59:43.130Z,31.30
2017-05-14T11:02:12.191Z,28.64
2017-05-14T11:04:41.285Z,26.86
2017-05-14T11:07:10.478Z,31.94
2017-05-14T11:09:40.310Z,25.46
2017-05-14T11:12:09.391Z,31.78
2017-05-14T11:14:38.487Z,24.22
2017-05-14T11:17:07.596Z,21.90
2017-05-14T11:19:36.666Z,21.02
2017-05-14T11:22:05.873Z,19.02
2017-05-14T11:24:34.955Z,19.60
2017-05-14T11:27:04.768Z,19.40
2017-05-14T11:29:33.890Z,19.56
2017-05-14T11:32:02.971Z,19.54
2017-05-14T11:34:32.098Z,22.20
2017-05-14T11:37:02.069Z,20.22
2017-05-14T11:39:31.901Z,18.66
2017-05-14T11:42:00.985Z,17.80
2017-05-14T11:44:30.084Z,16.74
2017-05-14T11:46:59.187Z,16.64
2017-05-14T11:49:28.267Z,18.00
2017-05-14T11:51:57.617Z,17.00
2017-05-14T11:54:26.693Z,17.00
2017-05-14T11:56:55.774Z,17.04
2017-05-14T11:59:24.874Z,15.76
2017-05-14T12:01:53.938Z,16.78
2017-05-14T12:04:23.150Z,17.10
2017-05-14T12:06:52.218Z,17.60
2017-05-14T12:09:21.295Z,18.44
2017-05-14T12:11:50.381Z,16.02
2017-05-14T12:14:19.450Z,15.84
2017-05-14T12:16:48.923Z,16.84
2017-05-14T12:19:18.015Z,18.46
2017-05-14T12:21:47.110Z,18.20
2017-05-14T12:24:16.211Z,18.32
2017-05-14T12:26:45.290Z,17.86
2017-05-14T12:29:14.609Z,16.60
2017-05-14T12:31:43.672Z,19.10
2017-05-14T12:34:13.496Z,18.42
2017-05-14T12:36:43.326Z,17.70
2017-05-14T12:39:12.402Z,13.94
2017-05-14T12:41:42.326Z,15.96
2017-05-14T12:44:11.406Z,16.26
2017-05-14T12:46:40.520Z,16.62
2017-05-14T12:49:09.602Z,17.88
2017-05-14T12:51:38.683Z,18.32
2017-05-14T12:54:08.628Z,15.26
2017-05-14T12:56:37.726Z,17.14
2017-05-14T12:59:06.822Z,16.40
2017-05-14T13:01:35.908Z,18.36
2017-05-14T13:04:04.982Z,16.38
2017-05-14T13:06:34.514Z,18.60
2017-05-14T13:09:03.582Z,17.70
2017-05-14T13:11:33.383Z,16.56
2017-05-14T13:14:03.226Z,16.96
2017-05-14T13:16:32.306Z,16.96
2017-05-14T13:19:01.407Z,16.70
2017-05-14T13:21:31.242Z,18.54
2017-05-14T13:24:00.431Z,16.22
2017-05-14T13:26:29.490Z,17.08
2017-05-14T13:28:58.546Z,14.74
2017-05-14T13:31:27.630Z,11.98
2017-05-14T13:33:56.711Z,11.04
2017-05-14T13:36:25.904Z,11.96
2017-05-14T13:38:54.995Z,10.70
2017-05-14T13:41:24.063Z,10.52
2017-05-14T13:43:53.879Z,8.00
2017-05-14T13:46:23.002Z,10.58
2017-05-14T13:48:52.190Z,10.06
2017-05-14T13:51:21.254Z,8.32
2017-05-14T13:53:51.058Z,8.96
2017-05-14T13:56:20.222Z,10.06
2017-05-14T13:58:49.262Z,8.30
2017-05-14T14:01:19.095Z,9.34
2017-05-14T14:03:48.158Z,10.74
2017-05-14T14:06:17.491Z,9.02
2017-05-14T14:08:47.312Z,10.54
2017-05-14T14:11:16.395Z,11.72
2017-05-14T14:13:45.491Z,9.04
2017-05-14T14:16:14.548Z,9.50
2017-05-14T14:18:43.642Z,7.92
2017-05-14T14:21:13.502Z,8.34
2017-05-14T14:23:42.998Z,9.80
2017-05-14T14:26:12.072Z,9.00
2017-05-14T14:28:41.874Z,8.44
2017-05-14T14:31:10.946Z,8.46
2017-05-14T14:33:40.012Z,10.52
2017-05-14T14:36:09.210Z,8.70
2017-05-14T14:38:38.258Z,9.72
2017-05-14T14:41:08.070Z,15.14
2017-05-14T14:43:37.906Z,10.06
2017-05-14T14:46:07.699Z,10.78
2017-05-14T14:48:37.527Z,11.20
2017-05-14T14:51:06.629Z,11.32
2017-05-14T14:53:36.135Z,13.04
2017-05-14T14:56:05.207Z,10.94
2017-05-14T14:58:34.304Z,11.04
2017-05-14T15:01:04.143Z,10.14
2017-05-14T15:03:33.204Z,11.12
2017-05-14T15:06:03.030Z,9.96
2017-05-14T15:08:32.086Z,8.24
2017-05-14T15:11:01.923Z,8.86
2017-05-14T15:13:31.737Z,8.48
2017-05-14T15:16:00.997Z,9.56
2017-05-14T15:18:30.087Z,10.00
2017-05-14T15:20:59.143Z,8.84
2017-05-14T15:23:29.156Z,8.44
2017-05-14T15:25:58.942Z,8.42
2017-05-14T15:28:28.018Z,8.74
2017-05-14T15:30:57.083Z,9.06
2017-05-14T15:33:26.166Z,8.78
2017-05-14T15:35:55.551Z,9.24
2017-05-14T15:38:24.614Z,9.46
2017-05-14T15:40:53.715Z,10.80
2017-05-14T15:43:22.830Z,10.56
2017-05-14T15:45:52.627Z,9.82
2017-05-14T15:48:22.562Z,8.92
2017-05-14T15:50:51.695Z,8.96
2017-05-14T15:53:20.762Z,10.32
2017-05-14T15:55:49.936Z,14.04
2017-05-14T15:58:19.739Z,17.30
2017-05-14T16:00:48.794Z,16.02
2017-05-14T16:03:17.886Z,17.14
2017-05-14T16:05:46.966Z,16.68
2017-05-14T16:08:16.175Z,14.06
2017-05-14T16:10:45.266Z,11.78
2017-05-14T16:13:14.339Z,11.62
2017-05-14T16:15:43.430Z,11.32
2017-05-14T16:18:12.512Z,14.94
2017-05-14T16:20:41.710Z,12.68
2017-05-14T16:23:10.790Z,17.28
2017-05-14T16:25:41.045Z,14.98
2017-05-14T16:28:10.158Z,14.68
2017-05-14T16:30:39.210Z,15.88
2017-05-14T16:33:08.434Z,12.08
2017-05-14T16:35:37.906Z,14.38
2017-05-14T16:38:06.967Z,14.36
2017-05-14T16:40:36.058Z,12.48
2017-05-14T16:43:05.131Z,12.74
2017-05-14T16:45:34.344Z,13.42
2017-05-14T16:48:03.732Z,12.30
2017-05-14T16:50:32.783Z,12.42
2017-05-14T16:53:02.611Z,10.92
2017-05-14T16:55:31.678Z,11.80
2017-05-14T16:58:01.527Z,10.48
2017-05-14T17:00:30.587Z,11.52
2017-05-14T17:02:59.675Z,12.14
2017-05-14T17:05:28.902Z,12.88
2017-05-14T17:07:57.991Z,15.50
2017-05-14T17:10:27.082Z,15.84
2017-05-14T17:12:56.334Z,15.46
2017-05-14T17:15:25.410Z,14.88
2017-05-14T17:17:54.476Z,14.72
2017-05-14T17:20:23.714Z,13.08
2017-05-14T17:22:52.796Z,10.34
2017-05-14T17:25:22.096Z,12.22
2017-05-14T17:27:51.158Z,8.56
2017-05-14T17:30:20.946Z,9.88
2017-05-14T17:32:50.788Z,9.76
2017-05-14T17:35:20.571Z,7.74
2017-05-14T17:37:49.747Z,8.12
2017-05-14T17:40:18.798Z,8.20
2017-05-14T17:42:47.855Z,7.66
2017-05-14T17:45:16.964Z,7.92
2017-05-14T17:47:46.039Z,10.04
2017-05-14T17:50:15.239Z,9.94
2017-05-14T17:52:44.315Z,8.48
2017-05-14T17:55:13.384Z,9.24
2017-05-14T17:57:42.466Z,8.22
2017-05-14T18:00:11.510Z,7.58
2017-05-14T18:02:41.060Z,8.96
2017-05-14T18:05:10.119Z,9.26
2017-05-14T18:07:39.166Z,10.82
2017-05-14T18:10:08.258Z,8.00
2017-05-14T18:12:37.335Z,7.66
2017-05-14T18:15:06.538Z,9.12
2017-05-14T18:17:35.597Z,8.64
2017-05-14T18:20:05.408Z,9.38
2017-05-14T18:22:35.253Z,7.68
2017-05-14T18:25:04.315Z,8.04
2017-05-14T18:27:34.146Z,8.42
2017-05-14T18:30:03.207Z,9.22
2017-05-14T18:32:32.398Z,8.64
2017-05-14T18:35:02.228Z,7.98
2017-05-14T18:37:32.071Z,8.28
2017-05-14T18:40:01.170Z,7.72
2017-05-14T18:42:30.223Z,6.60
2017-05-14T18:45:00.068Z,7.50
2017-05-14T18:47:29.128Z,7.52
2017-05-14T18:49:59.069Z,7.04
2017-05-14T18:52:28.138Z,5.82
2017-05-14T18:54:57.196Z,5.38
2017-05-14T18:57:26.282Z,5.86
2017-05-14T18:59:55.335Z,5.60
2017-05-14T19:02:24.590Z,5.50
2017-05-14T19:04:53.742Z,5.46
2017-05-14T19:07:22.808Z,6.32
2017-05-14T19:09:51.998Z,5.92
2017-05-14T19:12:21.048Z,5.62
2017-05-14T19:14:50.086Z,6.74
2017-05-14T19:17:19.534Z,7.08
2017-05-14T19:19:48.602Z,7.48
2017-05-14T19:22:17.687Z,6.56
2017-05-14T19:24:47.523Z,7.40
2017-05-14T19:27:16.589Z,7.32
2017-05-14T19:29:46.047Z,7.32
2017-05-14T19:32:15.143Z,7.12
2017-05-14T19:34:44.218Z,6.06
2017-05-14T19:37:13.338Z,5.64
2017-05-14T19:39:42.431Z,4.72
2017-05-14T19:42:11.650Z,4.88
2017-05-14T19:44:41.473Z,5.18
2017-05-14T19:47:10.524Z,5.36
2017-05-14T19:49:39.737Z,4.96
2017-05-14T19:52:08.799Z,4.94
2017-05-14T19:54:37.909Z,5.20
2017-05-14T19:57:07.250Z,5.66
2017-05-14T19:59:36.414Z,5.34
2017-05-14T20:02:05.676Z,5.92
2017-05-14T20:04:34.974Z,7.16
2017-05-14T20:07:04.791Z,7.10
2017-05-14T20:09:34.830Z,6.38
2017-05-14T20:12:03.910Z,8.08
2017-05-14T20:14:33.007Z,7.22
2017-05-14T20:17:02.198Z,8.54
2017-05-14T20:19:32.004Z,8.26
2017-05-14T20:22:01.063Z,9.72
2017-05-14T20:24:30.919Z,9.48
2017-05-14T20:26:59.996Z,11.60
2017-05-14T20:29:29.263Z,11.58
2017-05-14T20:31:58.320Z,10.64
2017-05-14T20:34:27.506Z,11.00
2017-05-14T20:36:56.594Z,13.28
2017-05-14T20:39:25.711Z,12.52
2017-05-14T20:41:54.797Z,12.26
2017-05-14T20:44:23.871Z,12.56
2017-05-14T20:46:52.991Z,13.56
2017-05-14T20:49:22.044Z,13.80
2017-05-14T20:51:51.339Z,13.66
2017-05-14T20:54:20.416Z,12.20
2017-05-14T20:56:50.255Z,15.24
2017-05-14T20:59:19.355Z,14.42
2017-05-14T21:01:48.455Z,16.38
2017-05-14T21:04:17.684Z,17.42
2017-05-14T21:06:46.780Z,15.58
2017-05-14T21:09:15.867Z,15.06
2017-05-14T21:11:44.964Z,14.18
2017-05-14T21:14:14.024Z,12.98
2017-05-14T21:16:43.471Z,16.96
2017-05-14T21:19:12.779Z,15.70
2017-05-14T21:21:41.870Z,15.92
2017-05-14T21:24:10.974Z,15.42
2017-05-14T21:26:40.034Z,15.26
2017-05-14T21:29:09.236Z,15.76
2017-05-14T21:31:38.302Z,16.36
2017-05-14T21:34:07.408Z,15.66
2017-05-14T21:36:36.501Z,16.80
2017-05-14T21:39:05.723Z,16.90
2017-05-14T21:41:34.811Z,15.84
2017-05-14T21:44:03.891Z,15.52
2017-05-14T21:46:33.087Z,16.80
2017-05-14T21:49:02.180Z,17.38
2017-05-14T21:51:31.275Z,18.16
2017-05-14T21:54:01.112Z,16.92
2017-05-14T21:56:30.199Z,13.74
2017-05-14T21:58:59.506Z,14.04
2017-05-14T22:01:34.174Z,16.64
2017-05-14T22:04:03.518Z,14.06
2017-05-14T22:06:32.623Z,15.62
2017-05-14T22:09:01.824Z,13.30
2017-05-14T22:11:30.934Z,13.86
2017-05-14T22:13:59.995Z,13.24
2017-05-14T22:16:29.090Z,13.08
2017-05-14T22:18:58.167Z,14.26
2017-05-14T22:21:27.399Z,12.54
2017-05-14T22:23:56.467Z,12.32
2017-05-14T22:26:26.287Z,12.96
2017-05-14T22:28:55.382Z,12.24
2017-05-14T22:31:24.462Z,12.14
2017-05-14T22:33:54.288Z,10.40
2017-05-14T22:36:23.374Z,11.48
2017-05-14T22:38:52.743Z,10.90
2017-05-14T22:41:21.813Z,12.28
2017-05-14T22:43:50.991Z,12.72
2017-05-14T22:46:20.070Z,11.70
2017-05-14T22:48:49.870Z,12.10
2017-05-14T22:51:19.695Z,11.42
2017-05-14T22:53:49.495Z,11.24
2017-05-14T22:56:19.324Z,11.02
2017-05-14T22:58:49.111Z,12.16
2017-05-14T23:01:18.323Z,11.72
2017-05-14T23:03:47.402Z,12.04
2017-05-14T23:06:17.219Z,12.28
2017-05-14T23:08:46.354Z,12.02
2017-05-14T23:11:15.426Z,12.72
2017-05-14T23:13:44.530Z,10.28
2017-05-14T23:16:13.594Z,12.10
2017-05-14T23:18:42.837Z,12.82
2017-05-14T23:21:11.923Z,12.50
2017-05-14T23:23:40.986Z,12.34
2017-05-14T23:26:10.816Z,13.20
2017-05-14T23:28:40.607Z,15.10
2017-05-14T23:31:09.822Z,12.94
2017-05-14T23:33:38.894Z,13.12
2017-05-14T23:36:08.717Z,12.92
2017-05-14T23:38:37.803Z,12.08
2017-05-14T23:41:07.619Z,11.08
2017-05-14T23:43:37.644Z,11.08
2017-05-14T23:46:06.719Z,11.90
2017-05-14T23:48:36.527Z,10.32
2017-05-14T23:51:06.358Z,11.20
2017-05-14T23:53:35.435Z,12.82
2017-05-14T23:56:05.279Z,12.02
2017-05-14T23:58:34.347Z,13.08
